Time;durP1;ratioP1;P1;durP2;ratioP2;P2;SDS_P1;SDS_P2;PMS_P1;PMS_P2;Temp;Humidity;BMP_temperature;BMP_pressure;BME280_temperature;BME280_humidity;BME280_pressure;Samples;Min_cycle;Max_cycle;Signal;HPM_P1;HPM_P2
2021/07/06 00:00:23;;;;;;;1.70;1.00;;;18.80;99.90;;;20.17;88.06;99614.94;6250772;22;20449;-85
2021/07/06 00:02:53;;;;;;;2.90;1.20;;;18.80;99.90;;;20.15;88.05;99618.22;6249841;23;20008;-88
2021/07/06 00:05:21;;;;;;;1.88;1.20;;;18.70;99.90;;;20.22;88.19;99611.56;6248052;23;20004;-86
2021/07/06 00:07:49;;;;;;;2.47;1.40;;;18.80;99.90;;;20.12;88.72;99615.50;6248309;23;20142;-86
2021/07/06 00:10:24;;;;;;;2.42;1.10;;;18.80;99.90;;;20.20;88.38;99614.03;6248806;23;20345;-86
2021/07/06 00:12:54;;;;;;;2.50;1.30;;;18.80;99.90;;;20.24;88.03;99604.19;6248503;23;20382;-84
2021/07/06 00:15:24;;;;;;;1.35;1.10;;;18.70;99.90;;;20.19;88.47;99598.28;6247923;23;20012;-84
2021/07/06 00:18:00;;;;;;;1.65;1.23;;;18.70;99.90;;;20.21;88.38;99599.44;6248847;23;20004;-88
2021/07/06 00:20:28;;;;;;;1.35;1.17;;;18.70;99.90;;;20.12;88.94;99601.31;6247784;23;20008;-86
2021/07/06 00:23:03;;;;;;;2.17;1.10;;;18.70;99.90;;;20.15;88.86;99606.91;6248332;23;20016;-84
2021/07/06 00:25:30;;;;;;;;;;;18.70;99.90;;;20.11;88.74;99594.84;6248785;23;20008;-86
2021/07/06 00:27:57;;;;;;;1.67;1.20;;;18.70;99.90;;;20.14;88.45;99596.00;6274116;22;19904;-83
2021/07/06 00:30:25;;;;;;;1.33;1.00;;;18.60;99.90;;;20.02;88.71;99585.41;6249439;23;20008;-85
2021/07/06 00:32:52;;;;;;;1.10;1.00;;;18.60;99.90;;;20.02;88.56;99586.22;6248026;23;20031;-86
2021/07/06 00:35:20;;;;;;;2.90;1.23;;;18.60;99.90;;;20.03;88.57;99579.31;6248184;23;20414;-86
2021/07/06 00:37:46;;;;;;;1.92;1.30;;;18.60;99.90;;;19.95;89.21;99597.75;6248591;23;20004;-88
2021/07/06 00:40:14;;;;;;;2.10;1.30;;;18.50;99.90;;;19.93;88.99;99601.03;6249662;23;20011;-87
2021/07/06 00:42:45;;;;;;;2.42;1.08;;;18.50;99.90;;;19.85;89.23;99601.66;6223810;23;20031;-86
2021/07/06 00:45:14;;;;;;;2.38;1.10;;;18.50;99.90;;;19.82;89.22;99596.88;6249325;23;20035;-87
2021/07/06 00:47:44;;;;;;;2.47;1.55;;;18.40;99.90;;;19.85;88.90;99608.13;6249785;23;20062;-84
2021/07/06 00:50:23;;;;;;;2.17;1.38;;;18.40;99.90;;;19.87;88.77;99602.03;6247515;23;20039;-86
2021/07/06 00:52:51;;;;;;;3.80;1.27;;;18.40;99.90;;;19.97;88.35;99601.72;6263416;23;20012;-86
2021/07/06 00:55:18;;;;;;;1.67;1.00;;;18.40;99.90;;;19.99;87.52;99584.28;6258963;22;20020;-86
2021/07/06 00:57:47;;;;;;;3.47;1.40;;;18.50;99.90;;;20.02;87.26;99585.41;6250428;22;20008;-86
2021/07/06 01:00:22;;;;;;;1.55;1.13;;;18.50;99.90;;;20.04;86.82;99580.88;6248382;23;20049;-86
2021/07/06 01:02:50;;;;;;;0.85;0.75;;;18.60;99.90;;;20.07;86.55;99576.38;6251017;22;20299;-85
2021/07/06 01:05:21;;;;;;;3.22;0.93;;;18.60;99.90;;;20.04;86.40;99571.56;6248608;23;20337;-86
2021/07/06 01:07:51;;;;;;;1.58;0.90;;;18.50;99.90;;;19.90;86.66;99579.25;6248467;23;20011;-86
2021/07/06 01:10:18;;;;;;;3.25;1.00;;;18.50;99.90;;;19.96;86.17;99562.50;6249750;22;20361;-86
2021/07/06 01:12:47;;;;;;;4.38;0.93;;;18.50;99.90;;;19.92;86.07;99562.59;6248144;23;20064;-85
2021/07/06 01:15:24;;;;;;;1.70;0.80;;;18.40;99.90;;;19.78;86.35;99565.81;6241229;23;20043;-84
2021/07/06 01:18:12;;;;;;;1.88;0.85;;;18.40;99.90;;;19.84;85.86;99568.91;6249468;23;20008;-89
2021/07/06 01:20:48;;;;;;;2.65;0.88;;;18.40;99.90;;;19.87;85.27;99565.19;6226282;23;20065;-88
2021/07/06 01:23:20;;;;;;;3.60;0.80;;;18.50;99.90;;;19.98;84.67;99565.66;6225562;23;20008;-91
2021/07/06 01:25:54;;;;;;;1.73;1.10;;;18.50;99.90;;;20.04;84.03;99568.75;6224569;23;20083;-89
2021/07/06 01:28:20;;;;;;;3.55;0.90;;;18.60;99.90;;;20.13;83.44;99575.34;6225231;23;20012;-89
2021/07/06 01:30:46;;;;;;;1.95;0.70;;;18.70;99.90;;;20.16;82.68;99568.00;6225321;23;20046;-90
2021/07/06 01:33:32;;;;;;;1.48;0.90;;;18.70;99.90;;;20.21;82.67;99571.06;6251189;23;20012;-88
2021/07/06 01:36:05;;;;;;;1.45;0.90;;;18.80;99.90;;;20.24;82.49;99570.19;6248448;23;20035;-88
2021/07/06 01:38:32;;;;;;;1.10;0.98;;;18.80;99.90;;;20.31;82.30;99560.69;6223377;23;20326;-86
2021/07/06 01:41:01;;;;;;;1.08;0.60;;;18.80;99.90;;;20.29;82.27;99558.28;6222524;23;20011;-89
2021/07/06 01:43:38;;;;;;;0.82;0.60;;;18.80;99.90;;;20.26;82.58;99559.19;6223732;23;20036;-89
2021/07/06 01:46:05;;;;;;;0.85;0.70;;;18.80;99.90;;;20.22;81.74;99547.16;6223750;23;20051;-90
2021/07/06 01:48:31;;;;;;;2.55;0.77;;;18.80;99.90;;;20.21;81.55;99536.25;6230807;23;20016;-87
2021/07/06 01:50:58;;;;;;;3.20;0.90;;;18.80;99.90;;;20.14;81.98;99534.44;6266575;22;20011;-87
2021/07/06 01:53:25;;;;;;;1.60;0.90;;;18.70;99.90;;;20.16;81.70;99528.31;6253708;23;20434;-88
2021/07/06 01:55:54;;;;;;;2.03;0.82;;;18.70;99.90;;;20.14;81.98;99525.91;6248626;23;20011;-89
2021/07/06 01:58:25;;;;;;;3.97;0.90;;;18.60;99.90;;;20.10;82.37;99530.91;6253609;23;20307;-88
2021/07/06 02:01:01;;;;;;;1.80;0.90;;;18.60;99.90;;;20.13;82.05;99523.56;6227791;23;20031;-90
2021/07/06 02:03:27;;;;;;;1.20;1.10;;;18.60;99.90;;;20.13;82.10;99506.53;6227144;23;20012;-88
2021/07/06 02:06:00;;;;;;;3.95;1.00;;;18.70;99.90;;;20.04;81.97;99510.03;6252679;23;20012;-88
2021/07/06 02:08:27;;;;;;;0.95;0.70;;;18.60;99.90;;;19.97;82.44;99527.25;6228972;23;20008;-89
2021/07/06 02:10:58;;;;;;;3.05;0.90;;;18.60;99.90;;;20.03;82.16;99516.97;6229542;23;20129;-89
2021/07/06 02:13:26;;;;;;;0.75;0.60;;;18.60;99.90;;;20.07;81.98;99506.28;6253123;23;20039;-88
2021/07/06 02:15:56;;;;;;;2.67;1.00;;;18.60;99.90;;;20.06;82.01;99509.59;6254292;23;20019;-87
2021/07/06 02:18:23;;;;;;;1.02;0.70;;;18.60;99.90;;;20.06;81.82;99503.91;6229580;23;20014;-87
2021/07/06 02:20:56;;;;;;;2.00;0.68;;;18.50;99.90;;;19.99;82.08;99499.25;6230338;23;20394;-88
2021/07/06 02:23:25;;;;;;;2.33;0.80;;;18.50;99.90;;;20.06;81.42;99487.72;6254306;23;20011;-87
2021/07/06 02:25:54;;;;;;;1.15;0.80;;;18.60;99.90;;;20.01;81.92;99493.91;6225191;23;20008;-86
2021/07/06 02:28:21;;;;;;;4.95;1.17;;;18.50;99.90;;;19.98;81.81;99495.63;6224991;23;20008;-85
2021/07/06 02:30:48;;;;;;;0.80;0.80;;;18.60;99.90;;;19.99;82.01;99491.56;6252682;23;20085;-86
2021/07/06 02:33:17;;;;;;;1.30;0.80;;;18.50;99.90;;;19.97;82.04;99487.59;6251036;23;20147;-87
2021/07/06 02:35:44;;;;;;;1.10;0.90;;;18.50;99.90;;;19.95;81.87;99484.38;6225614;23;20027;-86
2021/07/06 02:38:12;;;;;;;2.42;0.98;;;18.50;99.90;;;19.94;82.14;99480.75;6225235;23;20003;-88
2021/07/06 02:40:38;;;;;;;2.17;1.08;;;18.40;99.90;;;19.89;82.38;99480.53;6225487;23;20004;-85
2021/07/06 02:43:14;;;;;;;3.53;1.17;;;18.50;99.90;;;19.97;82.04;99479.84;6252078;23;20004;-87
2021/07/06 02:45:40;;;;;;;;;;;18.50;99.90;;;20.02;81.47;99484.19;6252113;23;20012;-87
2021/07/06 02:48:09;;;;;;;1.35;0.73;;;18.60;99.90;;;20.06;81.52;99472.75;6251656;23;20309;-90
2021/07/06 02:50:39;;;;;;;1.58;1.00;;;18.60;99.90;;;20.01;81.30;99457.06;6228013;23;20104;-86
2021/07/06 02:53:06;;;;;;;2.20;1.00;;;18.50;99.90;;;19.98;81.21;99443.81;6253764;23;20008;-88
2021/07/06 02:55:32;;;;;;;3.22;0.95;;;18.60;99.90;;;20.02;80.90;99452.22;6255968;23;20150;-90
2021/07/06 02:57:58;;;;;;;2.85;0.70;;;18.60;99.90;;;19.96;80.99;99475.44;6253182;23;20000;-87
2021/07/06 03:00:30;;;;;;;2.17;0.88;;;18.60;99.90;;;20.00;81.01;99481.00;6230400;23;20000;-86
2021/07/06 03:03:01;;;;;;;6.13;1.10;;;18.60;99.90;;;20.00;81.17;99481.00;6255804;23;20008;-86
2021/07/06 03:05:31;;;;;;;2.25;1.08;;;18.70;99.90;;;20.04;80.99;99486.53;6256155;23;20035;-86
2021/07/06 03:08:01;;;;;;;1.85;0.95;;;18.70;99.90;;;20.11;80.36;99470.13;6250264;23;20258;-87
2021/07/06 03:10:36;;;;;;;1.60;1.10;;;18.80;99.90;;;20.21;79.80;99468.22;6226728;23;20515;-84
2021/07/06 03:13:03;;;;;;;1.50;1.07;;;18.80;99.90;;;20.23;79.51;99460.03;6252985;23;20011;-85
2021/07/06 03:15:31;;;;;;;4.20;1.00;;;18.90;99.90;;;20.31;79.25;99450.13;6253899;23;20235;-83
2021/07/06 03:18:15;;;;;;;3.85;1.25;;;18.90;99.90;;;20.36;78.10;99456.00;6249860;23;20007;-89
2021/07/06 03:20:48;;;;;;;4.50;1.10;;;18.90;99.90;;;20.41;77.68;99443.31;6224024;23;20004;-85
2021/07/06 03:23:19;;;;;;;3.78;1.00;;;19.00;99.90;;;20.49;77.40;99447.50;6251602;23;20140;-85
2021/07/06 03:25:46;;;;;;;4.97;0.80;;;19.00;99.90;;;20.47;77.16;99453.63;6226719;23;20008;-86
2021/07/06 03:28:24;;;;;;;2.45;0.90;;;19.20;99.90;;;20.60;76.10;99455.66;6225521;23;20004;-86
2021/07/06 03:30:50;;;;;;;4.07;1.08;;;19.20;99.90;;;20.64;76.17;99450.69;6225388;23;20008;-85
2021/07/06 03:33:19;;;;;;;2.92;0.68;;;19.30;99.90;;;20.76;75.81;99450.66;6225799;23;20337;-85
2021/07/06 03:35:46;;;;;;;3.60;0.85;;;19.40;99.90;;;20.78;75.13;99433.97;6250882;23;20015;-83
2021/07/06 03:38:14;;;;;;;1.17;0.77;;;19.40;99.90;;;20.87;74.71;99450.31;6252129;23;20004;-86
2021/07/06 03:40:40;;;;;;;2.15;0.95;;;19.50;99.90;;;20.76;75.25;99447.84;6250553;23;20000;-84
2021/07/06 03:43:58;;;;;;;2.92;0.93;;;19.40;99.90;;;20.78;74.93;99433.97;6250752;23;20008;-86
2021/07/06 03:46:26;;;;;;;3.03;0.93;;;19.50;99.90;;;20.85;74.41;99436.56;6248829;23;20012;-85
2021/07/06 03:48:52;;;;;;;1.65;0.95;;;19.60;99.90;;;20.94;73.68;99428.16;6226131;23;20083;-86
2021/07/06 03:51:18;;;;;;;3.97;0.80;;;19.60;99.90;;;20.92;74.20;99430.66;6225325;23;20034;-86
2021/07/06 03:53:47;;;;;;;2.85;1.10;;;19.60;99.90;;;20.92;74.37;99441.22;6226494;23;20005;-87
2021/07/06 03:56:14;;;;;;;2.70;1.10;;;19.50;99.90;;;20.87;74.20;99431.22;6250723;23;20421;-84
2021/07/06 03:58:40;;;;;;;4.82;1.00;;;19.60;99.90;;;20.96;73.82;99427.69;6225322;23;20088;-89
2021/07/06 04:01:12;;;;;;;1.88;1.05;;;19.60;99.90;;;20.98;73.55;99425.19;6225122;23;20395;-85
2021/07/06 04:03:46;;;;;;;1.95;0.98;;;19.60;99.90;;;21.04;73.58;99423.34;6223953;23;20008;-87
2021/07/06 04:06:22;;;;;;;;;;;;;;;;;;;;;
2021/07/06 04:09:08;;;;;;;2.55;1.00;;;19.80;99.90;;;21.15;72.94;99425.84;6262249;23;19992;-83
2021/07/06 04:11:39;;;;;;;2.30;0.97;;;19.80;99.90;;;21.22;72.78;99412.22;6223719;23;20000;-86
2021/07/06 04:14:12;;;;;;;4.93;1.02;;;19.80;99.90;;;21.19;72.68;99409.50;6220355;23;20249;-86
2021/07/06 04:16:39;;;;;;;3.33;0.93;;;19.90;99.90;;;21.20;72.63;99403.34;6223677;23;20016;-85
2021/07/06 04:19:16;;;;;;;4.68;0.90;;;19.90;99.90;;;21.29;72.42;99411.13;6247574;23;20449;-85
2021/07/06 04:21:43;;;;;;;1.75;0.80;;;19.90;99.90;;;21.39;71.91;99402.25;6223899;23;20341;-84
2021/07/06 04:24:12;;;;;;;2.70;1.10;;;20.00;99.90;;;21.43;71.63;99397.22;6222996;23;20085;-86
2021/07/06 04:26:38;;;;;;;2.95;0.90;;;20.10;99.90;;;21.47;71.56;99406.41;6223957;23;20012;-87
2021/07/06 04:29:04;;;;;;;1.20;1.00;;;20.10;99.90;;;21.55;71.91;99402.03;6222361;23;20409;-86
2021/07/06 04:31:30;;;;;;;3.28;0.98;;;20.20;99.90;;;21.60;71.25;99392.16;6223454;23;20031;-88
2021/07/06 04:33:55;;;;;;;1.42;1.10;;;20.30;99.90;;;21.67;70.83;99385.41;6221570;23;20465;-87
2021/07/06 04:36:24;;;;;;;6.15;1.13;;;20.30;99.90;;;21.66;70.77;99395.97;6247430;23;20189;-87
2021/07/06 04:38:50;;;;;;;3.00;1.10;;;20.40;99.90;;;21.68;70.43;99392.66;6222044;23;20009;-86
2021/07/06 04:41:16;;;;;;;5.72;1.13;;;20.40;99.90;;;21.85;70.31;99385.50;6221682;23;20066;-90
2021/07/06 04:43:42;;;;;;;4.78;1.00;;;20.50;99.90;;;21.90;70.28;99370.69;6221682;23;20003;-88
2021/07/06 04:46:08;;;;;;;3.47;1.15;;;20.50;99.90;;;21.77;70.45;99382.13;6246503;23;20004;-89
2021/07/06 04:48:49;;;;;;;2.25;1.00;;;20.50;99.90;;;21.80;69.34;99366.22;6248785;23;20067;-88
2021/07/06 04:51:15;;;;;;;4.22;1.05;;;20.60;99.90;;;21.80;70.00;99371.91;6223168;23;20019;-87
2021/07/06 04:53:51;;;;;;;2.65;1.00;;;20.60;99.90;;;21.97;69.50;99359.84;6222689;23;20012;-88
2021/07/06 04:56:17;;;;;;;3.53;1.05;;;20.60;99.90;;;22.06;69.18;99367.63;6248006;23;20011;-85
2021/07/06 04:58:42;;;;;;;1.50;0.93;;;20.70;99.90;;;22.07;69.37;99355.00;6248130;23;20004;-92
2021/07/06 05:01:10;;;;;;;5.03;1.20;;;20.70;99.90;;;21.97;69.87;99356.22;6223845;23;20008;-85
2021/07/06 05:03:37;;;;;;;3.80;1.20;;;20.70;99.90;;;21.95;70.03;99344.53;6227060;23;20264;-89
2021/07/06 05:06:03;;;;;;;1.80;1.00;;;20.60;99.90;;;21.99;69.64;99365.09;6251279;23;20011;-85
2021/07/06 05:08:30;;;;;;;3.95;1.05;;;20.60;99.90;;;21.94;69.92;99380.69;6254190;23;20015;-85
2021/07/06 05:10:57;;;;;;;3.95;0.80;;;20.60;99.90;;;21.88;70.75;99379.69;6252262;23;20028;-86
2021/07/06 05:13:24;;;;;;;3.95;1.33;;;20.50;99.90;;;21.77;70.64;99392.72;6225790;23;20012;-85
2021/07/06 05:15:52;;;;;;;1.10;0.80;;;20.60;99.90;;;21.86;70.92;99402.09;6250610;23;20004;-86
2021/07/06 05:18:18;;;;;;;3.92;1.50;;;20.50;99.90;;;21.70;71.84;99407.19;6247462;23;20039;-84
2021/07/06 05:20:43;;;;;;;1.85;0.88;;;20.50;99.90;;;21.72;71.23;99416.84;6223473;23;20004;-87
2021/07/06 05:23:09;;;;;;;3.53;1.02;;;20.50;99.90;;;21.59;72.97;99421.81;6226011;23;20377;-85
2021/07/06 05:25:35;;;;;;;2.20;1.23;;;20.40;99.90;;;21.49;73.67;99415.25;6252547;23;20012;-86
2021/07/06 05:28:01;;;;;;;1.45;1.13;;;20.40;99.90;;;21.53;74.61;99421.63;6226031;23;20003;-87
2021/07/06 05:30:27;;;;;;;5.68;1.25;;;20.30;99.90;;;21.53;73.71;99424.44;6251806;23;20067;-88
2021/07/06 05:32:53;;;;;;;2.33;1.10;;;20.30;99.90;;;21.54;74.04;99426.03;6227019;23;20062;-89
2021/07/06 05:35:19;;;;;;;2.72;0.90;;;20.30;99.90;;;21.48;74.10;99433.56;6228999;23;20015;-90
2021/07/06 05:37:45;;;;;;;3.45;1.30;;;20.40;99.90;;;21.48;74.59;99442.06;6253817;23;20365;-89
2021/07/06 05:40:15;;;;;;;2.95;1.25;;;20.30;99.90;;;21.37;74.44;99470.09;6230183;23;20004;-89
2021/07/06 05:42:42;;;;;;;2.28;1.08;;;20.30;99.90;;;21.43;75.35;99468.22;6254420;23;20009;-85
2021/07/06 05:45:10;;;;;;;4.70;1.48;;;20.30;99.90;;;21.45;75.09;99488.44;6252413;23;20042;-86
2021/07/06 05:47:40;;;;;;;2.38;1.17;;;20.30;99.90;;;21.49;74.85;99500.47;6227157;23;20043;-86
2021/07/06 05:50:12;;;;;;;2.50;1.27;;;20.30;99.90;;;21.36;76.73;99507.44;6253158;23;20038;-85
2021/07/06 05:52:38;;;;;;;2.08;1.27;;;20.30;99.90;;;21.41;75.43;99519.03;6248291;23;20047;-85
2021/07/06 05:55:07;;;;;;;2.92;1.25;;;20.30;99.90;;;21.24;77.07;99533.84;6248644;23;20050;-85
2021/07/06 05:57:33;;;;;;;2.63;1.02;;;20.10;99.90;;;21.13;78.10;99544.78;6223803;23;20033;-87
2021/07/06 06:00:08;;;;;;;2.63;1.20;;;20.10;99.90;;;21.17;77.63;99551.09;6251164;23;20004;-88
2021/07/06 06:02:34;;;;;;;1.80;1.13;;;20.00;99.90;;;21.16;78.69;99555.22;6251141;23;20122;-85
2021/07/06 06:05:00;;;;;;;2.10;0.95;;;20.00;99.90;;;21.15;77.95;99554.41;6250560;23;20008;-88
2021/07/06 06:07:26;;;;;;;2.13;1.02;;;20.00;99.90;;;21.11;78.78;99548.06;6250345;23;20004;-88
2021/07/06 06:09:52;;;;;;;1.58;1.02;;;20.00;99.90;;;20.94;80.18;99546.56;6223015;23;20008;-89
2021/07/06 06:12:18;;;;;;;5.28;1.30;;;19.90;99.90;;;20.84;80.65;99548.50;6248009;23;20392;-87
2021/07/06 06:14:44;;;;;;;2.17;1.25;;;19.80;99.90;;;20.81;81.23;99545.75;6250716;23;20007;-88
2021/07/06 06:17:10;;;;;;;3.72;1.25;;;19.70;99.90;;;20.71;83.02;99550.53;6227866;23;20000;-88
2021/07/06 06:19:36;;;;;;;3.30;1.70;;;19.70;99.90;;;20.71;82.31;99542.00;6249758;23;20090;-88
2021/07/06 06:22:03;;;;;;;3.50;1.40;;;19.60;99.90;;;20.54;83.54;99529.19;6223802;23;20008;-85
2021/07/06 06:24:29;;;;;;;4.80;1.33;;;19.50;99.90;;;20.50;83.94;99546.31;6256087;23;20019;-85
2021/07/06 06:26:55;;;;;;;2.45;1.48;;;19.50;99.90;;;20.39;84.13;99551.53;6261156;23;20008;-87
2021/07/06 06:29:21;;;;;;;4.90;1.40;;;19.50;99.90;;;20.47;83.97;99552.91;6249137;23;20038;-87
2021/07/06 06:31:47;;;;;;;4.38;1.52;;;19.40;99.90;;;20.44;83.68;99553.00;6251076;23;20050;-84
2021/07/06 06:34:13;;;;;;;2.15;1.40;;;19.40;99.90;;;20.42;84.39;99550.63;6223808;23;20008;-85
2021/07/06 06:36:40;;;;;;;5.07;1.40;;;19.40;99.90;;;20.36;85.29;99541.09;6249366;23;20004;-85
2021/07/06 06:39:07;;;;;;;3.67;1.35;;;19.30;99.90;;;20.28;84.92;99542.56;6224151;23;20421;-85
2021/07/06 06:41:33;;;;;;;1.95;1.25;;;19.30;99.90;;;20.33;85.56;99532.69;6249054;23;20040;-86
2021/07/06 06:43:59;;;;;;;2.78;1.40;;;19.30;99.90;;;20.28;86.28;99536.09;6223003;23;20015;-87
2021/07/06 06:46:26;;;;;;;1.45;1.10;;;19.20;99.90;;;20.14;87.13;99533.63;6222883;23;20008;-84
2021/07/06 06:48:53;;;;;;;2.40;1.17;;;19.20;99.90;;;19.99;87.81;99538.94;6223886;23;20062;-86
2021/07/06 06:51:19;;;;;;;1.48;1.00;;;19.10;99.90;;;20.04;87.57;99541.19;6249388;23;20642;-83
2021/07/06 06:53:45;;;;;;;3.88;1.17;;;19.00;99.90;;;19.94;88.26;99540.25;6250280;23;20008;-86
2021/07/06 06:56:11;;;;;;;3.70;1.50;;;18.90;99.90;;;19.94;89.17;99533.78;6251019;23;20008;-86
2021/07/06 06:58:37;;;;;;;2.90;1.13;;;19.00;99.90;;;19.93;88.86;99521.69;6223694;23;20000;-86
2021/07/06 07:01:07;;;;;;;2.10;1.30;;;18.90;99.90;;;19.93;88.70;99518.84;6250719;23;20057;-86
2021/07/06 07:03:33;;;;;;;3.00;1.30;;;18.80;99.90;;;19.88;88.53;99508.06;6223465;23;20007;-84
2021/07/06 07:05:59;;;;;;;2.85;1.08;;;18.80;99.90;;;19.91;88.13;99472.34;6226548;23;20012;-87
2021/07/06 07:08:28;;;;;;;2.80;1.30;;;18.80;99.90;;;19.88;86.94;99502.38;6223887;23;20004;-83
2021/07/06 07:10:54;;;;;;;1.95;0.80;;;18.70;99.90;;;19.87;88.07;99494.34;6248748;23;20099;-84
2021/07/06 07:13:20;;;;;;;2.72;1.30;;;18.70;99.90;;;19.85;87.01;99489.13;6222791;23;20066;-88
2021/07/06 07:15:46;;;;;;;3.17;1.10;;;18.80;99.90;;;19.85;85.75;99502.50;6249672;23;20063;-84
2021/07/06 07:18:22;;;;;;;2.20;1.20;;;18.70;99.90;;;19.81;86.32;99498.97;6223685;23;20001;-88
2021/07/06 07:20:48;;;;;;;1.70;0.90;;;18.60;99.90;;;19.87;86.04;99503.63;6224998;23;20008;-87
2021/07/06 07:23:17;;;;;;;4.32;1.40;;;18.70;99.90;;;19.81;87.63;99501.81;6225622;23;20019;-87
2021/07/06 07:25:43;;;;;;;2.28;1.50;;;18.60;99.90;;;19.77;88.08;99498.28;6224297;23;20008;-86
2021/07/06 07:28:09;;;;;;;3.60;1.10;;;18.60;99.90;;;19.72;88.83;99501.66;6225764;23;20012;-83
2021/07/06 07:30:36;;;;;;;2.38;1.17;;;18.60;99.90;;;19.74;90.21;99508.47;6227096;23;20015;-85
2021/07/06 07:33:05;;;;;;;4.07;1.40;;;18.60;99.90;;;19.65;91.49;99501.88;6261664;23;20028;-88
2021/07/06 07:35:31;;;;;;;4.65;1.73;;;18.50;99.90;;;19.53;92.75;99486.41;6258776;23;20426;-87
2021/07/06 07:37:59;;;;;;;5.07;1.40;;;18.40;99.90;;;19.54;93.75;99482.34;6260200;23;20192;-86
2021/07/06 07:40:25;;;;;;;3.28;1.27;;;18.40;99.90;;;19.52;93.40;99462.16;6250694;23;20074;-87
2021/07/06 07:42:54;;;;;;;4.03;1.67;;;18.40;99.90;;;19.50;92.84;99436.31;6226546;23;20004;-87
2021/07/06 07:45:20;;;;;;;4.88;1.73;;;18.40;99.90;;;19.46;93.18;99362.78;6227034;23;20404;-87
2021/07/06 07:47:46;;;;;;;2.15;1.23;;;18.40;99.90;;;19.51;92.78;99259.53;6230623;23;20008;-88
2021/07/06 07:50:15;;;;;;;2.65;1.55;;;18.50;99.90;;;19.50;92.81;99237.31;6257227;23;20004;-87
2021/07/06 07:52:51;;;;;;;1.73;1.35;;;18.50;99.90;;;19.63;92.35;99252.25;6255916;23;20341;-88
2021/07/06 07:55:20;;;;;;;4.18;1.58;;;18.60;99.90;;;19.55;91.97;99260.22;6229558;23;20003;-89
2021/07/06 07:57:53;;;;;;;2.47;1.27;;;18.60;99.90;;;19.71;92.09;99281.97;6237037;23;20010;-84
2021/07/06 08:00:19;;;;;;;1.77;1.00;;;18.60;99.90;;;19.64;89.48;99285.00;6236897;23;20062;-88
2021/07/06 08:02:45;;;;;;;1.95;1.23;;;18.70;99.90;;;19.71;90.19;99296.13;6264853;23;20008;-86
2021/07/06 08:05:11;;;;;;;2.30;1.45;;;18.60;99.90;;;19.80;88.77;99311.19;6268366;23;20020;-86
2021/07/06 08:07:38;;;;;;;3.83;1.20;;;18.70;99.90;;;19.85;89.59;99309.81;6243984;23;20030;-85
2021/07/06 08:10:26;;;;;;;1.35;0.98;;;18.80;99.90;;;19.87;90.28;99319.44;6270747;22;20019;-84
2021/07/06 08:12:52;;;;;;;3.80;1.63;;;18.80;99.90;;;19.86;90.17;99334.88;6269935;22;20011;-84
2021/07/06 08:15:18;;;;;;;4.82;1.27;;;18.80;99.90;;;19.90;91.17;99351.78;6244764;23;20004;-83
2021/07/06 08:17:44;;;;;;;2.95;1.30;;;18.80;99.90;;;19.90;91.06;99351.78;6243012;23;20019;-84
2021/07/06 08:20:12;;;;;;;1.23;1.00;;;18.80;99.90;;;20.13;90.65;99365.59;6236722;23;20353;-88
2021/07/06 08:22:42;;;;;;;1.73;1.20;;;18.90;99.90;;;20.08;90.88;99362.53;6261547;23;20019;-85
2021/07/06 08:25:09;;;;;;;4.88;1.10;;;18.90;99.90;;;20.15;91.34;99380.13;6234216;23;20087;-86
2021/07/06 08:27:36;;;;;;;3.17;1.38;;;18.90;99.90;;;20.07;91.56;99370.25;6234292;23;20030;-87
2021/07/06 08:30:09;;;;;;;2.25;1.30;;;18.90;99.90;;;20.24;91.06;99366.06;6233280;23;20008;-88
2021/07/06 08:32:36;;;;;;;2.55;1.35;;;18.90;99.90;;;20.24;91.04;99379.44;6260234;23;20008;-87
2021/07/06 08:35:45;;;;;;;2.90;1.50;;;19.00;99.90;;;20.34;89.77;99364.94;6236548;23;20086;-88
2021/07/06 08:38:16;;;;;;;3.03;1.10;;;19.00;99.90;;;20.39;89.83;99352.22;6213911;23;20004;-86
2021/07/06 08:40:51;;;;;;;2.75;1.52;;;19.10;99.90;;;20.38;89.65;99339.31;6235869;23;20004;-86
2021/07/06 08:43:18;;;;;;;1.40;1.10;;;19.10;99.90;;;20.53;88.41;99337.56;6266608;23;19992;-85
2021/07/06 08:45:58;;;;;;;1.90;1.00;;;19.20;99.90;;;20.65;87.23;99350.94;6244592;22;20012;-88
2021/07/06 08:48:33;;;;;;;2.78;1.20;;;19.30;99.90;;;20.78;87.58;99365.06;6237184;23;19992;-86
2021/07/06 08:51:01;;;;;;;4.70;1.27;;;19.40;99.90;;;20.82;86.87;99362.91;6254584;23;20030;-88
2021/07/06 08:53:28;;;;;;;2.67;1.23;;;19.40;99.90;;;20.95;87.14;99377.84;6223361;23;20012;-88
2021/07/06 08:55:58;;;;;;;2.65;1.20;;;19.50;99.90;;;20.96;86.68;99385.13;6255600;23;20058;-89
2021/07/06 08:58:26;;;;;;;2.50;1.13;;;19.70;99.90;;;21.18;84.66;99383.16;6250924;23;20022;-88
2021/07/06 09:00:52;;;;;;;3.42;1.40;;;19.80;99.90;;;21.27;86.03;99388.91;6229664;23;20386;-88
2021/07/06 09:03:18;;;;;;;2.63;1.08;;;19.90;99.90;;;21.35;85.39;99392.28;6253766;23;20008;-86
2021/07/06 09:05:45;;;;;;;2.97;1.17;;;20.00;99.90;;;21.42;83.58;99389.16;6226011;23;20016;-86
2021/07/06 09:08:17;;;;;;;3.08;1.50;;;20.10;99.90;;;21.57;82.84;99412.16;6255166;23;20072;-88
2021/07/06 09:10:44;;;;;;;1.70;1.00;;;20.20;99.90;;;21.70;81.58;99425.06;6249408;23;20019;-86
2021/07/06 09:13:31;;;;;;;3.17;1.40;;;20.40;99.90;;;21.66;82.17;99429.25;6225840;23;20004;-87
2021/07/06 09:16:07;;;;;;;1.65;1.13;;;20.40;99.90;;;21.75;82.99;99435.00;6250038;23;20107;-85
2021/07/06 09:18:34;;;;;;;4.05;1.10;;;20.40;99.90;;;21.85;80.23;99436.66;6202445;23;20012;-90
2021/07/06 09:21:12;;;;;;;1.73;0.98;;;20.50;99.90;;;22.06;78.09;99435.84;6247399;23;20268;-88
2021/07/06 09:23:49;;;;;;;5.85;1.20;;;20.60;99.90;;;22.14;78.29;99442.88;6247352;23;20008;-87
2021/07/06 09:26:30;;;;;;;0.93;0.80;;;20.80;99.90;;;22.33;77.18;99438.84;6223556;23;20008;-87
2021/07/06 09:29:01;;;;;;;2.22;0.98;;;20.90;99.90;;;22.34;74.55;99442.50;6223725;23;20019;-86
2021/07/06 09:31:37;;;;;;;1.48;0.90;;;21.00;99.90;;;22.51;72.75;99450.31;6248904;23;20059;-87
2021/07/06 09:34:17;;;;;;;1.38;0.77;;;21.10;99.90;;;22.63;73.38;99447.81;6249585;23;20026;-91
2021/07/06 09:37:00;;;;;;;1.27;0.80;;;21.30;99.90;;;22.46;72.16;99461.50;6222286;23;20426;-89
2021/07/06 09:39:27;;;;;;;1.25;0.55;;;21.30;99.90;;;22.43;72.96;99463.25;6225751;23;20004;-83
2021/07/06 09:42:04;;;;;;;1.58;0.90;;;21.20;99.90;;;22.47;72.30;99472.44;6223053;23;20012;-86
2021/07/06 09:44:35;;;;;;;1.08;0.60;;;21.20;99.90;;;22.36;71.52;99465.56;6223506;23;20008;-87
2021/07/06 09:47:14;;;;;;;5.60;1.05;;;21.20;99.90;;;22.28;72.95;99464.28;6259832;23;20012;-88
2021/07/06 09:49:53;;;;;;;2.28;0.60;;;21.20;99.90;;;22.48;72.26;99465.47;6230415;23;20015;-89
2021/07/06 09:52:22;;;;;;;1.27;0.73;;;21.20;99.90;;;22.33;72.00;99483.56;6255345;23;20394;-88
2021/07/06 09:55:05;;;;;;;1.42;0.80;;;21.20;99.90;;;22.35;72.22;99478.19;6252651;23;20022;-92
2021/07/06 09:57:40;;;;;;;1.35;0.75;;;21.10;99.90;;;22.14;73.20;99459.94;6227432;23;20012;-89
2021/07/06 10:00:11;;;;;;;2.20;0.60;;;21.00;99.90;;;22.00;73.29;99471.84;6227046;23;20046;-90
2021/07/06 10:02:40;;;;;;;0.65;0.65;;;21.00;99.90;;;22.02;74.84;99501.41;6228557;23;20134;-88
2021/07/06 10:05:16;;;;;;;0.80;0.80;;;21.00;99.90;;;22.22;73.92;99483.97;6254429;23;20011;-89
2021/07/06 10:07:42;;;;;;;1.45;0.80;;;21.10;99.90;;;22.57;72.68;99476.88;6226179;23;20016;-87
2021/07/06 10:10:13;;;;;;;1.63;0.50;;;21.30;99.90;;;22.52;72.96;99496.63;6252527;23;20088;-89
2021/07/06 10:12:46;;;;;;;0.70;0.60;;;21.30;99.90;;;22.44;74.17;99486.81;6226475;23;20019;-85
2021/07/06 10:15:19;;;;;;;1.42;0.60;;;21.30;99.90;;;22.32;72.89;99490.50;6227364;23;20008;-88
2021/07/06 10:17:47;;;;;;;1.65;0.73;;;21.30;99.90;;;22.35;72.68;99492.41;6250892;23;20031;-89
2021/07/06 10:20:21;;;;;;;1.23;0.80;;;21.20;99.90;;;22.18;73.96;99480.50;6227939;23;20004;-88
2021/07/06 10:22:51;;;;;;;3.75;0.70;;;21.10;99.90;;;22.23;73.15;99494.09;6254647;23;20037;-89
2021/07/06 10:25:27;;;;;;;2.70;0.80;;;21.10;99.90;;;22.15;73.34;99497.69;6254363;23;20016;-85
2021/07/06 10:28:05;;;;;;;0.40;0.40;;;21.00;99.90;;;22.00;74.33;99495.38;6250099;23;20494;-86
2021/07/06 10:30:44;;;;;;;1.45;0.60;;;21.00;99.90;;;21.95;74.52;99504.53;6249098;23;20008;-90